Time;durP1;ratioP1;P1;durP2;ratioP2;P2;SDS_P1;SDS_P2;PMS_P1;PMS_P2;Temp;Humidity;BMP_temperature;BMP_pressure;BME280_temperature;BME280_humidity;BME280_pressure;Samples;Min_cycle;Max_cycle;Signal;HPM_P1;HPM_P2
2023/09/23 00:00:22;;;;;;;;;;;;;;;;;;5111768;28;19912;-72
2023/09/23 00:03:16;;;;;;;;;;;;;;;;;;5112663;27;19916;-72
2023/09/23 00:05:43;;;;;;;;;;;;;;;;;;5111428;28;19912;-72
2023/09/23 00:08:09;;;;;;;;;;;;;;;;;;5110408;28;20281;-73
2023/09/23 00:14:15;;;;;;;;;;;;;;;;;;5112033;27;19916;-72
2023/09/23 00:18:43;;;;;;;;;;;;;;;;;;5111932;27;20291;-72
2023/09/23 00:21:09;;;;;;;;;;;;;;;;;;5110462;28;19911;-72
2023/09/23 00:24:17;;;;;;;;;;;;;;;;;;5112561;27;19915;-72
2023/09/23 00:26:43;;;;;;;;;;;;;;;;;;5111293;28;19912;-72
2023/09/23 00:29:10;;;;;;;;;;;;;;;;;;5111625;28;19908;-72
2023/09/23 00:31:36;;;;;;;;;;;;;;;;;;5111521;28;19978;-72
2023/09/23 00:34:02;;;;;;;;;;;;;;;;;;5111475;28;20368;-74
2023/09/23 00:38:17;;;;;;;;;;;;;;;;;;5111968;27;19916;-72
2023/09/23 00:42:03;;;;;;;;;;;;;;;;;;5153036;27;20383;-72
2023/09/23 00:44:29;;;;;;;;;;;;;;;;;;5152872;27;19965;-72
2023/09/23 00:46:55;;;;;;;;;;;;;;;;;;5152374;27;19911;-72
2023/09/23 00:49:24;;;;;;;;;;;;;;;;;;5152801;27;19922;-71
2023/09/23 00:53:35;;;;;;;;;;;;;;;;;;5111959;27;19916;-72
2023/09/23 00:56:00;;;;;;;;;;;;;;;;;;5111303;28;19912;-72
2023/09/23 00:59:01;;;;;;;;;;;;;;;;;;5113906;27;2181484;-71
2023/09/23 01:01:27;;;;;;;;;;;;;;;;;;5154624;27;19911;-72
2023/09/23 01:03:52;;;;;;;;;;;;;;;;;;5173778;27;20344;-72
2023/09/23 01:06:19;;;;;;;;;;;;;;;;;;5173647;27;20002;-72
2023/09/23 01:09:00;;;;;;;;;;;;;;;;;;5111459;27;19912;-72
2023/09/23 01:14:47;;;;;;;;;;;;;;;;;;5111935;27;19916;-72
2023/09/23 01:17:15;;;;;;;;;;;;;;;;;;5110025;28;19927;-72
2023/09/23 01:20:57;;;;;;;;;;;;;;;;;;5111831;27;20379;-72
2023/09/23 01:23:23;;;;;;;;;;;;;;;;;;5111418;28;19954;-72
2023/09/23 01:27:51;;;;;;;;;;;;;;;;;;5153452;27;20022;-72
2023/09/23 01:30:20;;;;;;;;;;;;;;;;;;5134010;27;19954;-71
2023/09/23 01:32:46;;;;;;;;;;;;;;;;;;5152851;27;19932;-72
2023/09/23 01:38:24;;;;;;;;;;;;;;;;;;5091688;28;19912;-72
2023/09/23 01:40:51;;;;;;;;;;;;;;;;;;5089991;28;19918;-72
2023/09/23 01:46:27;;;;;;;;;;;;;;;;;;5112336;27;19922;-72
2023/09/23 01:48:55;;;;;;;;;;;;;;;;;;5110531;28;20333;-72
2023/09/23 01:54:53;;;;;;;;;;;;;;;;;;5092212;27;19917;-72
2023/09/23 01:57:19;;;;;;;;;;;;;;;;;;5090938;28;20006;-72
2023/09/23 01:59:45;;;;;;;;;;;;;;;;;;5091269;28;19962;-74
2023/09/23 02:02:11;;;;;;;;;;;;;;;;;;5091556;28;19908;-72
2023/09/23 02:05:59;;;;;;;;;;;;;;;;;;5111433;27;19918;-72
2023/09/23 02:08:46;;;;;;;;;;;;;;;;;;5111909;27;19912;-72
2023/09/23 02:12:39;;;;;;;;;;;;;;;;;;5111640;27;19916;-72
2023/09/23 02:16:54;;;;;;;;;;;;;;;;;;5112170;27;19916;-72
2023/09/23 02:19:20;;;;;;;;;;;;;;;;;;5110056;28;19912;-72
2023/09/23 02:21:47;;;;;;;;;;;;;;;;;;5111730;28;19908;-72
2023/09/23 02:24:13;;;;;;;;;;;;;;;;;;5111683;28;20376;-72
2023/09/23 02:29:43;;;;;;;;;;;;;;;;;;5111999;27;19916;-72
2023/09/23 02:38:05;;;;;;;;;;;;;;;;;;5112169;27;19922;-71
2023/09/23 02:40:31;;;;;;;;;;;;;;;;;;5111357;28;19965;-71
2023/09/23 02:42:59;;;;;;;;;;;;;;;;;;5110422;28;19915;-72
2023/09/23 02:46:05;;;;;;;;;;;;;;;;;;5112444;27;20384;-72
2023/09/23 02:54:11;;;;;;;;;;;;;;;;;;5091068;27;19919;-72
2023/09/23 02:59:04;;;;;;;;;;;;;;;;;;5112236;27;19923;-71
2023/09/23 03:02:23;;;;;;;;;;;;;;;;;;5111543;27;19912;-72
2023/09/23 03:04:58;;;;;;;;;;;;;;;;;;5111741;28;19916;-71
2023/09/23 03:07:24;;;;;;;;;;;;;;;;;;5111385;28;19908;-74
2023/09/23 03:09:55;;;;;;;;;;;;;;;;;;5112012;28;19915;-72
2023/09/23 03:13:05;;;;;;;;;;;;;;;;;;5112689;27;19922;-72
2023/09/23 03:15:34;;;;;;;;;;;;;;;;;;5110121;28;19919;-73
2023/09/23 03:22:58;;;;;;;;;;;;;;;;;;5091359;27;19923;-72
2023/09/23 03:25:25;;;;;;;;;;;;;;;;;;5091391;28;19912;-72
2023/09/23 03:27:51;;;;;;;;;;;;;;;;;;5091326;28;20352;-71
2023/09/23 03:30:17;;;;;;;;;;;;;;;;;;5090964;28;20003;-71
2023/09/23 03:32:43;;;;;;;;;;;;;;;;;;5091355;28;20387;-72
2023/09/23 03:37:07;;;;;;;;;;;;;;;;;;5111594;27;19922;-71
2023/09/23 03:40:14;;;;;;;;;;;;;;;;;;5112625;27;19919;-72
2023/09/23 03:43:28;;;;;;;;;;;;;;;;;;5111795;27;19919;-71
2023/09/23 03:45:55;;;;;;;;;;;;;;;;;;5111716;28;19912;-71
2023/09/23 03:48:21;;;;;;;;;;;;;;;;;;5111656;28;19995;-71
2023/09/23 03:54:52;;;;;;;;;;;;;;;;;;5112608;27;19916;-71
2023/09/23 03:57:38;;;;;;;;;;;;;;;;;;5111434;27;20282;-71
2023/09/23 04:05:54;;;;;;;;;;;;;;;;;;5111531;27;19916;-71
2023/09/23 04:08:20;;;;;;;;;;;;;;;;;;5110435;28;19973;-72
2023/09/23 04:10:46;;;;;;;;;;;;;;;;;;5111542;28;19908;-71
2023/09/23 04:13:27;;;;;;;;;;;;;;;;;;5153346;27;20030;-73
2023/09/23 04:21:01;;;;;;;;;;;;;;;;;;5112002;27;19918;-72
2023/09/23 04:25:07;;;;;;;;;;;;;;;;;;5112071;27;19922;-71
2023/09/23 04:27:33;;;;;;;;;;;;;;;;;;5110441;28;19943;-71
2023/09/23 04:32:07;;;;;;;;;;;;;;;;;;5111959;27;19916;-72
2023/09/23 04:34:35;;;;;;;;;;;;;;;;;;5111767;28;20030;-72
2023/09/23 04:37:04;;;;;;;;;;;;;;;;;;5111964;28;19908;-72
2023/09/23 04:42:48;;;;;;;;;;;;;;;;;;5112223;27;19916;-71
2023/09/23 04:52:19;;;;;;;;;;;;;;;;;;5112601;27;19922;-72
2023/09/23 04:54:45;;;;;;;;;;;;;;;;;;5110065;28;19962;-72
2023/09/23 05:01:35;;;;;;;;;;;;;;;;;;5091292;27;19923;-72
2023/09/23 05:04:03;;;;;;;;;;;;;;;;;;5091453;28;19999;-72
2023/09/23 05:06:29;;;;;;;;;;;;;;;;;;5091385;28;20269;-71
2023/09/23 05:11:20;;;;;;;;;;;;;;;;;;5112329;27;20295;-72
2023/09/23 05:14:14;;;;;;;;;;;;;;;;;;5091482;28;20287;-71
2023/09/23 05:16:40;;;;;;;;;;;;;;;;;;5091379;28;20380;-71
2023/09/23 05:19:05;;;;;;;;;;;;;;;;;;5090051;28;19908;-71
2023/09/23 05:21:31;;;;;;;;;;;;;;;;;;5090963;28;19908;-71
2023/09/23 05:26:51;;;;;;;;;;;;;;;;;;5111860;27;19922;-71
2023/09/23 05:29:17;;;;;;;;;;;;;;;;;;5109964;28;19995;-72
2023/09/23 05:36:53;;;;;;;;;;;;;;;;;;5111363;27;19916;-71
2023/09/23 05:39:45;;;;;;;;;;;;;;;;;;5111825;27;20359;-71
2023/09/23 05:42:13;;;;;;;;;;;;;;;;;;5111400;28;20002;-71
2023/09/23 05:44:39;;;;;;;;;;;;;;;;;;5111630;28;19994;-71
2023/09/23 05:47:05;;;;;;;;;;;;;;;;;;5110561;28;20011;-71
2023/09/23 05:50:36;;;;;;;;;;;;;;;;;;5091317;27;19923;-72
2023/09/23 05:55:25;;;;;;;;;;;;;;;;;;5092236;27;19916;-71
2023/09/23 05:57:51;;;;;;;;;;;;;;;;;;5090879;28;19935;-71
2023/09/23 06:02:25;;;;;;;;;;;;;;;;;;5091819;27;20376;-71
2023/09/23 06:05:18;;;;;;;;;;;;;;;;;;5091025;27;19919;-72
2023/09/23 06:07:45;;;;;;;;;;;;;;;;;;5091334;28;20435;-73
2023/09/23 06:10:11;;;;;;;;;;;;;;;;;;5091122;28;19908;-72
2023/09/23 06:12:36;;;;;;;;;;;;;;;;;;5091751;28;19935;-72
2023/09/23 06:15:02;;;;;;;;;;;;;;;;;;5091142;28;19908;-71
2023/09/23 06:17:52;;;;;;;;;;;;;;;;;;5111394;27;19912;-73
2023/09/23 06:23:02;;;;;;;;;;;;;;;;;;5092020;27;19922;-71
2023/09/23 06:25:50;;;;;;;;;;;;;;;;;;5091212;27;19917;-72
2023/09/23 06:28:16;;;;;;;;;;;;;;;;;;5091291;28;20006;-71
2023/09/23 06:31:05;;;;;;;;;;;;;;;;;;5091406;27;19916;-72
2023/09/23 06:33:31;;;;;;;;;;;;;;;;;;5090993;28;20348;-72
2023/09/23 06:38:03;;;;;;;;;;;;;;;;;;5091445;28;20244;-72
2023/09/23 06:40:29;;;;;;;;;;;;;;;;;;5089703;28;20010;-72
2023/09/23 06:45:26;;;;;;;;;;;;;;;;;;5111555;27;19916;-71
2023/09/23 06:48:15;;;;;;;;;;;;;;;;;;5091636;27;19919;-73
2023/09/23 06:50:41;;;;;;;;;;;;;;;;;;5091268;28;20007;-72
2023/09/23 06:55:40;;;;;;;;;;;;;;;;;;5092124;27;20275;-72
2023/09/23 06:58:06;;;;;;;;;;;;;;;;;;5091331;28;20003;-73
2023/09/23 07:01:36;;;;;;;;;;;;;;;;;;5111457;27;19922;-72
2023/09/23 07:04:02;;;;;;;;;;;;;;;;;;5110431;28;20007;-72
2023/09/23 07:06:28;;;;;;;;;;;;;;;;;;5111401;28;19991;-72
2023/09/23 07:12:33;;;;;;;;;;;;;;;;;;5091590;28;20372;-71
2023/09/23 07:14:59;;;;;;;;;;;;;;;;;;5090945;28;19995;-72
2023/09/23 07:18:09;;;;;;;;;;;;;;;;;;5111799;27;19916;-73
2023/09/23 07:20:35;;;;;;;;;;;;;;;;;;5111501;28;20006;-72
2023/09/23 07:24:42;;;;;;;;;;;;;;;;;;5091532;27;19916;-72
2023/09/23 07:27:32;;;;;;;;;;;;;;;;;;5091391;27;19916;-72
2023/09/23 07:29:58;;;;;;;;;;;;;;;;;;5091376;28;20428;-74
2023/09/23 07:33:20;;;;;;;;;;;;;;;;;;5111807;27;19922;-72
2023/09/23 07:35:46;;;;;;;;;;;;;;;;;;5111322;28;20002;-72
2023/09/23 07:38:12;;;;;;;;;;;;;;;;;;5111841;28;19908;-72
2023/09/23 07:40:38;;;;;;;;;;;;;;;;;;5111944;28;19908;-72
2023/09/23 07:44:13;;;;;;;;;;;;;;;;;;5112257;27;19916;-72
2023/09/23 07:47:24;;;;;;;;;;;;;;;;;;5091574;27;20388;-72
2023/09/23 07:49:50;;;;;;;;;;;;;;;;;;5090979;28;19944;-73
2023/09/23 07:52:16;;;;;;;;;;;;;;;;;;5091247;28;19955;-72
2023/09/23 07:54:42;;;;;;;;;;;;;;;;;;5091379;28;19916;-72
2023/09/23 07:57:08;;;;;;;;;;;;;;;;;;5090852;28;19940;-72
2023/09/23 08:01:12;;;;;;;;;;;;;;;;;;5111843;27;19922;-71
2023/09/23 08:03:38;;;;;;;;;;;;;;;;;;5111265;28;19954;-72
2023/09/23 08:06:04;;;;;;;;;;;;;;;;;;5111934;28;20377;-72
2023/09/23 08:08:30;;;;;;;;;;;;;;;;;;5111608;28;20368;-71
2023/09/23 08:10:56;;;;;;;;;;;;;;;;;;5110269;28;20280;-72
2023/09/23 08:13:22;;;;;;;;;;;;;;;;;;5111553;28;19912;-72
2023/09/23 08:16:21;;;;;;;;;;;;;;;;;;5111715;27;20283;-72
2023/09/23 08:18:47;;;;;;;;;;;;;;;;;;5111315;28;20003;-72
2023/09/23 08:21:14;;;;;;;;;;;;;;;;;;5110363;28;20322;-72
2023/09/23 08:24:04;;;;;;;;;;;;;;;;;;5071046;28;19916;-72
2023/09/23 08:27:18;;;;;;;;;;;;;;;;;;5112074;27;19923;-72
2023/09/23 08:29:44;;;;;;;;;;;;;;;;;;5112287;28;20419;-72
2023/09/23 08:34:24;;;;;;;;;;;;;;;;;;5111720;27;20296;-72
2023/09/23 08:36:50;;;;;;;;;;;;;;;;;;5111696;28;19965;-73
2023/09/23 08:40:42;;;;;;;;;;;;;;;;;;5112229;27;19916;-72
2023/09/23 08:43:08;;;;;;;;;;;;;;;;;;5111657;28;20320;-72
2023/09/23 08:45:34;;;;;;;;;;;;;;;;;;5111252;28;19961;-73
2023/09/23 08:48:00;;;;;;;;;;;;;;;;;;5111672;28;19908;-72
2023/09/23 08:50:26;;;;;;;;;;;;;;;;;;5110242;28;20343;-71
2023/09/23 08:52:52;;;;;;;;;;;;;;;;;;5111106;28;20279;-72
2023/09/23 08:55:18;;;;;;;;;;;;;;;;;;5110216;28;19908;-72
2023/09/23 08:57:44;;;;;;;;;;;;;;;;;;5111401;28;20359;-72
2023/09/23 09:00:10;;;;;;;;;;;;;;;;;;5111161;28;20386;-72
2023/09/23 09:02:36;;;;;;;;;;;;;;;;;;5111669;28;20045;-74
2023/09/23 09:05:03;;;;;;;;;;;;;;;;;;5111316;28;19947;-72
2023/09/23 09:07:29;;;;;;;;;;;;;;;;;;5110796;28;19912;-74
2023/09/23 09:09:55;;;;;;;;;;;;;;;;;;5109932;28;19915;-74
2023/09/23 09:14:25;;;;;;;;;;;;;;;;;;5091284;27;19916;-71
2023/09/23 09:16:51;;;;;;;;;;;;;;;;;;5091298;28;20006;-72
2023/09/23 09:19:19;;;;;;;;;;;;;;;;;;5091289;28;19995;-72
2023/09/23 09:21:45;;;;;;;;;;;;;;;;;;5090901;28;20019;-72
2023/09/23 09:24:11;;;;;;;;;;;;;;;;;;5091175;28;19947;-73
2023/09/23 09:26:38;;;;;;;;;;;;;;;;;;5091150;28;20027;-73
2023/09/23 09:29:04;;;;;;;;;;;;;;;;;;5090714;28;19914;-72
2023/09/23 09:31:30;;;;;;;;;;;;;;;;;;5091034;28;19912;-73
2023/09/23 09:33:56;;;;;;;;;;;;;;;;;;5091066;28;19921;-73
2023/09/23 09:36:23;;;;;;;;;;;;;;;;;;5090554;28;19915;-73
2023/09/23 09:38:49;;;;;;;;;;;;;;;;;;5091763;28;19915;-73
2023/09/23 09:41:16;;;;;;;;;;;;;;;;;;5090635;28;19919;-73
2023/09/23 09:43:42;;;;;;;;;;;;;;;;;;5090795;28;19995;-73
2023/09/23 09:46:08;;;;;;;;;;;;;;;;;;5090804;28;20393;-73
2023/09/23 09:48:34;;;;;;;;;;;;;;;;;;5090442;28;19909;-73
2023/09/23 09:51:00;;;;;;;;;;;;;;;;;;5091116;28;20296;-73
2023/09/23 09:53:26;;;;;;;;;;;;;;;;;;5090649;28;20268;-73
2023/09/23 09:55:52;;;;;;;;;;;;;;;;;;5088958;28;19916;-73
2023/09/23 09:58:18;;;;;;;;;;;;;;;;;;5090531;28;19908;-74
2023/09/23 10:00:43;;;;;;;;;;;;;;;;;;5090614;28;19951;-74
2023/09/23 10:03:11;;;;;;;;;;;;;;;;;;5090111;28;19909;-74
2023/09/23 10:05:36;;;;;;;;;;;;;;;;;;5090910;28;19995;-74
2023/09/23 10:08:02;;;;;;;;;;;;;;;;;;5090410;28;20003;-74
2023/09/23 10:10:31;;;;;;;;;;;;;;;;;;5089967;28;19916;-73
2023/09/23 10:12:58;;;;;;;;;;;;;;;;;;5089996;28;19920;-73
2023/09/23 10:15:24;;;;;;;;;;;;;;;;;;5090200;28;19950;-74
2023/09/23 10:17:50;;;;;;;;;;;;;;;;;;5089780;28;19951;-74
2023/09/23 10:20:18;;;;;;;;;;;;;;;;;;5090053;28;19961;-73
2023/09/23 10:22:44;;;;;;;;;;;;;;;;;;5089804;28;19908;-71
2023/09/23 10:25:11;;;;;;;;;;;;;;;;;;5079118;28;19961;-71
2023/09/23 10:27:37;;;;;;;;;;;;;;;;;;5076274;28;20005;-74
2023/09/23 10:30:04;;;;;;;;;;;;;;;;;;5076683;28;19999;-74
2023/09/23 10:32:30;;;;;;;;;;;;;;;;;;5075762;28;20369;-74
2023/09/23 10:34:56;;;;;;;;;;;;;;;;;;5076394;28;19920;-74
2023/09/23 10:37:22;;;;;;;;;;;;;;;;;;5074877;28;19913;-73
2023/09/23 10:39:48;;;;;;;;;;;;;;;;;;5075653;28;20325;-72
2023/09/23 10:42:14;;;;;;;;;;;;;;;;;;5076159;28;20288;-72
2023/09/23 10:44:40;;;;;;;;;;;;;;;;;;5076107;28;19932;-72
2023/09/23 10:47:07;;;;;;;;;;;;;;;;;;5074629;28;20376;-72
2023/09/23 10:49:33;;;;;;;;;;;;;;;;;;5075878;28;19908;-72
2023/09/23 10:51:59;;;;;;;;;;;;;;;;;;5075450;28;19908;-72
2023/09/23 10:54:24;;;;;;;;;;;;;;;;;;5075747;28;19965;-72
2023/09/23 10:56:51;;;;;;;;;;;;;;;;;;5075747;28;19909;-72
2023/09/23 10:59:17;;;;;;;;;;;;;;;;;;5075560;28;19953;-73
2023/09/23 11:01:45;;;;;;;;;;;;;;;;;;5074426;28;20014;-73
2023/09/23 11:04:11;;;;;;;;;;;;;;;;;;5075620;28;19908;-73
2023/09/23 11:06:37;;;;;;;;;;;;;;;;;;5075136;28;19915;-73
2023/09/23 11:09:03;;;;;;;;;;;;;;;;;;5075607;28;19924;-73
2023/09/23 11:11:29;;;;;;;;;;;;;;;;;;5075415;28;20453;-73
2023/09/23 11:13:55;;;;;;;;;;;;;;;;;;5074886;28;19924;-73
2023/09/23 11:16:21;;;;;;;;;;;;;;;;;;5074168;28;19915;-73
2023/09/23 11:18:47;;;;;;;;;;;;;;;;;;5075397;28;20428;-73
2023/09/23 11:21:13;;;;;;;;;;;;;;;;;;5075155;28;19967;-73
2023/09/23 11:23:39;;;;;;;;;;;;;;;;;;5075562;28;19912;-73
2023/09/23 11:26:05;;;;;;;;;;;;;;;;;;5075252;28;19916;-73
2023/09/23 11:28:31;;;;;;;;;;;;;;;;;;5074890;28;19908;-73
2023/09/23 11:30:57;;;;;;;;;;;;;;;;;;5075196;28;19908;-73
2023/09/23 11:33:24;;;;;;;;;;;;;;;;;;5074995;28;19923;-73
2023/09/23 11:35:50;;;;;;;;;;;;;;;;;;5072406;28;20265;-73
2023/09/23 11:38:20;;;;;;;;;;;;;;;;;;5075024;28;19916;-73
2023/09/23 11:40:46;;;;;;;;;;;;;;;;;;5074588;28;20324;-73
2023/09/23 11:43:12;;;;;;;;;;;;;;;;;;5074927;28;20284;-73
2023/09/23 11:45:41;;;;;;;;;;;;;;;;;;5074921;28;19915;-73
2023/09/23 11:48:08;;;;;;;;;;;;;;;;;;5074331;28;19954;-73
2023/09/23 11:50:35;;;;;;;;;;;;;;;;;;5074740;28;19909;-73
2023/09/23 11:53:01;;;;;;;;;;;;;;;;;;5074605;28;19916;-73
2023/09/23 11:55:27;;;;;;;;;;;;;;;;;;5074203;28;19959;-73
2023/09/23 11:57:54;;;;;;;;;;;;;;;;;;5074562;28;20348;-73
2023/09/23 12:00:20;;;;;;;;;;;;;;;;;;5073217;28;19909;-73
2023/09/23 12:02:48;;;;;;;;;;;;;;;;;;5074060;28;19912;-73
2023/09/23 12:05:16;;;;;;;;;;;;;;;;;;5074729;28;19909;-73
2023/09/23 12:07:42;;;;;;;;;;;;;;;;;;5074433;28;19909;-73
2023/09/23 12:10:09;;;;;;;;;;;;;;;;;;5073929;28;19908;-73
2023/09/23 12:12:35;;;;;;;;;;;;;;;;;;5074518;28;20292;-73
2023/09/23 12:15:01;;;;;;;;;;;;;;;;;;5074753;28;20261;-73
2023/09/23 12:17:27;;;;;;;;;;;;;;;;;;5073961;28;20438;-73
2023/09/23 12:19:53;;;;;;;;;;;;;;;;;;5074078;28;19954;-73
2023/09/23 12:22:20;;;;;;;;;;;;;;;;;;5074103;28;20057;-73
2023/09/23 12:24:46;;;;;;;;;;;;;;;;;;5072381;28;20019;-73
2023/09/23 12:27:12;;;;;;;;;;;;;;;;;;5074234;28;19951;-72
2023/09/23 12:29:38;;;;;;;;;;;;;;;;;;5073982;28;19954;-73
2023/09/23 12:32:04;;;;;;;;;;;;;;;;;;5073533;28;19954;-72
2023/09/23 12:34:30;;;;;;;;;;;;;;;;;;5073929;28;19947;-73
2023/09/23 12:36:56;;;;;;;;;;;;;;;;;;5072443;28;19909;-72
2023/09/23 12:39:22;;;;;;;;;;;;;;;;;;5072375;28;19915;-72
2023/09/23 12:41:48;;;;;;;;;;;;;;;;;;5072512;28;19908;-73
2023/09/23 12:44:14;;;;;;;;;;;;;;;;;;5073516;28;19908;-72
2023/09/23 12:46:40;;;;;;;;;;;;;;;;;;5073869;28;20420;-72
2023/09/23 12:49:08;;;;;;;;;;;;;;;;;;5073662;28;19958;-73
2023/09/23 12:51:35;;;;;;;;;;;;;;;;;;5073357;28;19908;-73
2023/09/23 12:54:01;;;;;;;;;;;;;;;;;;5074048;28;19916;-73
2023/09/23 12:56:27;;;;;;;;;;;;;;;;;;5073979;28;20275;-73
2023/09/23 12:58:54;;;;;;;;;;;;;;;;;;5073307;28;20319;-73
2023/09/23 13:01:20;;;;;;;;;;;;;;;;;;5072570;28;19908;-73
2023/09/23 13:03:45;;;;;;;;;;;;;;;;;;5073725;28;19966;-73
2023/09/23 13:06:11;;;;;;;;;;;;;;;;;;5072010;28;20006;-73
2023/09/23 13:08:38;;;;;;;;;;;;;;;;;;5074284;28;19930;-73
2023/09/23 13:11:04;;;;;;;;;;;;;;;;;;5072544;28;19909;-73
2023/09/23 13:13:30;;;;;;;;;;;;;;;;;;5073060;28;19927;-73
2023/09/23 13:15:55;;;;;;;;;;;;;;;;;;5073847;28;19912;-73
2023/09/23 13:18:21;;;;;;;;;;;;;;;;;;5074135;28;20377;-73
2023/09/23 13:20:48;;;;;;;;;;;;;;;;;;5073320;28;20368;-73
2023/09/23 13:23:14;;;;;;;;;;;;;;;;;;5072331;28;19909;-73
2023/09/23 13:25:40;;;;;;;;;;;;;;;;;;5072337;28;19999;-73
2023/09/23 13:28:06;;;;;;;;;;;;;;;;;;5073135;28;20001;-73
2023/09/23 13:30:32;;;;;;;;;;;;;;;;;;5073764;28;19912;-73
2023/09/23 13:32:58;;;;;;;;;;;;;;;;;;5072217;28;19916;-74
2023/09/23 13:35:24;;;;;;;;;;;;;;;;;;5073136;28;19912;-73
2023/09/23 13:37:50;;;;;;;;;;;;;;;;;;5073568;28;19970;-72
2023/09/23 13:40:16;;;;;;;;;;;;;;;;;;5073253;28;20368;-72
2023/09/23 13:42:42;;;;;;;;;;;;;;;;;;5072140;28;19995;-72
2023/09/23 13:45:08;;;;;;;;;;;;;;;;;;5073709;28;19908;-72
2023/09/23 13:47:34;;;;;;;;;;;;;;;;;;5073262;28;19916;-72
2023/09/23 13:50:00;;;;;;;;;;;;;;;;;;5073427;28;19909;-72
2023/09/23 13:52:26;;;;;;;;;;;;;;;;;;5073227;28;19912;-73
2023/09/23 13:54:52;;;;;;;;;;;;;;;;;;5073103;28;19920;-73
2023/09/23 13:57:18;;;;;;;;;;;;;;;;;;5073308;28;19916;-73
2023/09/23 13:59:44;;;;;;;;;;;;;;;;;;5074638;28;19909;-73
2023/09/23 14:02:10;;;;;;;;;;;;;;;;;;5076599;28;19909;-72
2023/09/23 14:04:36;;;;;;;;;;;;;;;;;;5075572;28;19919;-73
2023/09/23 14:07:01;;;;;;;;;;;;;;;;;;5076939;28;19909;-73
2023/09/23 14:09:27;;;;;;;;;;;;;;;;;;5076624;28;19940;-73
2023/09/23 14:11:53;;;;;;;;;;;;;;;;;;5075589;28;19908;-73
2023/09/23 14:14:19;;;;;;;;;;;;;;;;;;5076531;28;19921;-72
2023/09/23 14:16:45;;;;;;;;;;;;;;;;;;5076406;28;19912;-73
2023/09/23 14:19:11;;;;;;;;;;;;;;;;;;5076929;28;19962;-73
2023/09/23 14:21:37;;;;;;;;;;;;;;;;;;5076598;28;19971;-72
2023/09/23 14:24:03;;;;;;;;;;;;;;;;;;5074972;28;20019;-72
2023/09/23 14:26:29;;;;;;;;;;;;;;;;;;5076577;28;19916;-73
2023/09/23 14:28:55;;;;;;;;;;;;;;;;;;5076538;28;19919;-73
2023/09/23 14:31:21;;;;;;;;;;;;;;;;;;5076024;28;19909;-73
2023/09/23 14:33:47;;;;;;;;;;;;;;;;;;5075067;28;19917;-72
2023/09/23 14:36:14;;;;;;;;;;;;;;;;;;5076350;28;19908;-73
2023/09/23 14:38:40;;;;;;;;;;;;;;;;;;5074688;28;19913;-73
2023/09/23 14:41:07;;;;;;;;;;;;;;;;;;5075022;28;19965;-72
2023/09/23 14:43:32;;;;;;;;;;;;;;;;;;5076511;28;19912;-72
2023/09/23 14:45:58;;;;;;;;;;;;;;;;;;5075772;28;19908;-73
2023/09/23 14:48:24;;;;;;;;;;;;;;;;;;5076201;28;19915;-73
2023/09/23 14:50:50;;;;;;;;;;;;;;;;;;5075769;28;19947;-72
2023/09/23 14:53:16;;;;;;;;;;;;;;;;;;5076021;28;19920;-73
2023/09/23 14:55:43;;;;;;;;;;;;;;;;;;5074727;28;19909;-73
2023/09/23 14:58:10;;;;;;;;;;;;;;;;;;5075698;28;19909;-73
2023/09/23 15:00:36;;;;;;;;;;;;;;;;;;5076093;28;19913;-74
2023/09/23 15:03:03;;;;;;;;;;;;;;;;;;5075833;28;19969;-74
2023/09/23 15:05:29;;;;;;;;;;;;;;;;;;5075490;28;19916;-74
2023/09/23 15:07:54;;;;;;;;;;;;;;;;;;5074564;28;19909;-74
2023/09/23 15:10:21;;;;;;;;;;;;;;;;;;5075652;28;19995;-74
2023/09/23 15:12:47;;;;;;;;;;;;;;;;;;5075116;28;20026;-74
2023/09/23 15:15:15;;;;;;;;;;;;;;;;;;5075918;28;19915;-74
2023/09/23 15:17:41;;;;;;;;;;;;;;;;;;5075642;28;19909;-71
2023/09/23 15:20:10;;;;;;;;;;;;;;;;;;5075215;28;19909;-74
2023/09/23 15:22:36;;;;;;;;;;;;;;;;;;5075668;28;19944;-74
2023/09/23 15:25:02;;;;;;;;;;;;;;;;;;5075577;28;19912;-74
2023/09/23 15:27:28;;;;;;;;;;;;;;;;;;5075030;28;19908;-73
2023/09/23 15:29:54;;;;;;;;;;;;;;;;;;5075399;28;19915;-74
2023/09/23 15:32:20;;;;;;;;;;;;;;;;;;5075290;28;19931;-73
2023/09/23 15:34:46;;;;;;;;;;;;;;;;;;5073657;28;19962;-73
2023/09/23 15:37:12;;;;;;;;;;;;;;;;;;5075362;28;19959;-74
2023/09/23 15:39:39;;;;;;;;;;;;;;;;;;5075203;28;19915;-74
2023/09/23 15:42:05;;;;;;;;;;;;;;;;;;5074756;28;19965;-73
2023/09/23 15:44:31;;;;;;;;;;;;;;;;;;5073726;28;19934;-74
2023/09/23 15:46:57;;;;;;;;;;;;;;;;;;5075035;28;19916;-73
2023/09/23 15:49:23;;;;;;;;;;;;;;;;;;5073375;28;19915;-73
2023/09/23 15:51:49;;;;;;;;;;;;;;;;;;5074954;28;19908;-73
2023/09/23 15:54:15;;;;;;;;;;;;;;;;;;5074441;28;19921;-74
2023/09/23 15:56:41;;;;;;;;;;;;;;;;;;5074854;28;19909;-73
2023/09/23 15:59:08;;;;;;;;;;;;;;;;;;5074748;28;19949;-73
2023/09/23 16:01:34;;;;;;;;;;;;;;;;;;5073071;28;19959;-73
2023/09/23 16:04:00;;;;;;;;;;;;;;;;;;5074747;28;19983;-73
2023/09/23 16:06:27;;;;;;;;;;;;;;;;;;5074591;28;19955;-73
2023/09/23 16:08:53;;;;;;;;;;;;;;;;;;5074188;28;19980;-73
2023/09/23 16:11:19;;;;;;;;;;;;;;;;;;5074532;28;19961;-73
2023/09/23 16:13:46;;;;;;;;;;;;;;;;;;5074305;28;19924;-73
2023/09/23 16:16:11;;;;;;;;;;;;;;;;;;5073998;28;19999;-73
2023/09/23 16:18:37;;;;;;;;;;;;;;;;;;5074398;28;19951;-74
2023/09/23 16:21:03;;;;;;;;;;;;;;;;;;5074397;28;19908;-74
2023/09/23 16:23:29;;;;;;;;;;;;;;;;;;5072453;28;20320;-73
2023/09/23 16:25:55;;;;;;;;;;;;;;;;;;5074284;28;19912;-73
2023/09/23 16:28:22;;;;;;;;;;;;;;;;;;5074362;28;20047;-73
2023/09/23 16:30:48;;;;;;;;;;;;;;;;;;5073746;28;19909;-73
2023/09/23 16:33:14;;;;;;;;;;;;;;;;;;5072663;28;19923;-73
2023/09/23 16:35:40;;;;;;;;;;;;;;;;;;5074125;28;19951;-73
2023/09/23 16:38:06;;;;;;;;;;;;;;;;;;5072408;28;20015;-73
2023/09/23 16:40:31;;;;;;;;;;;;;;;;;;5072733;28;20398;-73
2023/09/23 16:42:57;;;;;;;;;;;;;;;;;;5073992;28;20249;-73
2023/09/23 16:45:23;;;;;;;;;;;;;;;;;;5073584;28;20287;-73
2023/09/23 16:47:49;;;;;;;;;;;;;;;;;;5073994;28;19915;-73
2023/09/23 16:50:15;;;;;;;;;;;;;;;;;;5073854;28;19912;-73
2023/09/23 16:52:41;;;;;;;;;;;;;;;;;;5073487;28;19919;-73
2023/09/23 16:55:08;;;;;;;;;;;;;;;;;;5073827;28;20022;-73
2023/09/23 16:57:34;;;;;;;;;;;;;;;;;;5073478;28;20364;-73
2023/09/23 17:00:01;;;;;;;;;;;;;;;;;;5073875;28;19909;-73
2023/09/23 17:02:27;;;;;;;;;;;;;;;;;;5073827;28;19909;-73
2023/09/23 17:05:04;;;;;;;;;;;;;;;;;;5111453;27;20280;-72
2023/09/23 17:07:32;;;;;;;;;;;;;;;;;;5110405;28;20006;-72
2023/09/23 17:09:58;;;;;;;;;;;;;;;;;;5111517;28;19999;-73
2023/09/23 17:12:24;;;;;;;;;;;;;;;;;;5109939;28;20431;-72
2023/09/23 17:14:50;;;;;;;;;;;;;;;;;;5111544;28;19908;-74
2023/09/23 17:17:16;;;;;;;;;;;;;;;;;;5111544;28;20274;-72
2023/09/23 17:19:42;;;;;;;;;;;;;;;;;;5111134;28;19912;-72
2023/09/23 17:22:09;;;;;;;;;;;;;;;;;;5111419;28;19911;-72
2023/09/23 17:24:35;;;;;;;;;;;;;;;;;;5111349;28;19916;-74
2023/09/23 17:27:00;;;;;;;;;;;;;;;;;;5110966;28;19915;-73
2023/09/23 17:29:27;;;;;;;;;;;;;;;;;;5110027;28;19908;-74
2023/09/23 17:31:54;;;;;;;;;;;;;;;;;;5109943;28;19908;-73
2023/09/23 17:34:20;;;;;;;;;;;;;;;;;;5110806;28;19908;-75
2023/09/23 17:36:45;;;;;;;;;;;;;;;;;;5111293;28;19915;-74
2023/09/23 17:39:11;;;;;;;;;;;;;;;;;;5109903;28;19908;-73
2023/09/23 17:41:37;;;;;;;;;;;;;;;;;;5110621;28;19908;-74
2023/09/23 17:44:03;;;;;;;;;;;;;;;;;;5111008;28;19920;-73
2023/09/23 17:46:29;;;;;;;;;;;;;;;;;;5109633;28;19915;-73
2023/09/23 17:48:55;;;;;;;;;;;;;;;;;;5110386;28;19954;-72
2023/09/23 17:51:21;;;;;;;;;;;;;;;;;;5110821;28;19908;-72
2023/09/23 17:53:47;;;;;;;;;;;;;;;;;;5110456;28;20352;-72
2023/09/23 17:56:13;;;;;;;;;;;;;;;;;;5110789;28;20368;-72
2023/09/23 17:59:28;;;;;;;;;;;;;;;;;;5091477;27;19912;-72
2023/09/23 18:01:54;;;;;;;;;;;;;;;;;;5090875;28;19912;-72
2023/09/23 18:04:20;;;;;;;;;;;;;;;;;;5091269;28;19915;-73
2023/09/23 18:07:41;;;;;;;;;;;;;;;;;;5112123;27;19912;-73
2023/09/23 18:10:07;;;;;;;;;;;;;;;;;;5112011;28;19924;-72
2023/09/23 18:12:33;;;;;;;;;;;;;;;;;;5111927;28;19908;-72
2023/09/23 18:14:59;;;;;;;;;;;;;;;;;;5111237;28;20364;-73
2023/09/23 18:17:26;;;;;;;;;;;;;;;;;;5111672;28;19912;-72
2023/09/23 18:19:51;;;;;;;;;;;;;;;;;;5111623;28;19958;-73
2023/09/23 18:22:17;;;;;;;;;;;;;;;;;;5109827;28;19912;-73
2023/09/23 18:24:43;;;;;;;;;;;;;;;;;;5111647;28;19908;-73
2023/09/23 18:27:10;;;;;;;;;;;;;;;;;;5111617;28;19923;-73
2023/09/23 18:30:49;;;;;;;;;;;;;;;;;;5111354;27;20243;-74
2023/09/23 18:33:15;;;;;;;;;;;;;;;;;;5111796;28;20007;-73
2023/09/23 18:35:41;;;;;;;;;;;;;;;;;;5111630;28;20314;-73
2023/09/23 18:38:07;;;;;;;;;;;;;;;;;;5111227;28;19961;-73
2023/09/23 18:40:33;;;;;;;;;;;;;;;;;;5111528;28;19914;-73
2023/09/23 18:42:59;;;;;;;;;;;;;;;;;;5109816;28;19956;-73
2023/09/23 18:45:24;;;;;;;;;;;;;;;;;;5111476;28;19908;-73
2023/09/23 18:47:50;;;;;;;;;;;;;;;;;;5111416;28;19908;-74
2023/09/23 18:50:17;;;;;;;;;;;;;;;;;;5109628;28;19916;-74
2023/09/23 18:52:42;;;;;;;;;;;;;;;;;;5111316;28;19930;-74
2023/09/23 18:55:10;;;;;;;;;;;;;;;;;;5111777;28;19916;-73
2023/09/23 18:57:47;;;;;;;;;;;;;;;;;;5091592;27;19916;-72
2023/09/23 19:00:14;;;;;;;;;;;;;;;;;;5091278;28;20011;-74
2023/09/23 19:02:43;;;;;;;;;;;;;;;;;;5091235;28;19908;-74
2023/09/23 19:07:55;;;;;;;;;;;;;;;;;;5112183;27;19916;-72